sensor_id;sensor_type;location;lat;lon;timestamp;P1;durP1;ratioP1;P2;durP2;ratioP2
16262;SDS011;8239;48.594;8.598;2023-01-31T00:01:06;10.67;;;5.00;;
16262;SDS011;8239;48.594;8.598;2023-01-31T00:03:34;11.43;;;5.03;;
16262;SDS011;8239;48.594;8.598;2023-01-31T00:06:13;10.83;;;5.03;;
16262;SDS011;8239;48.594;8.598;2023-01-31T00:08:42;8.57;;;4.30;;
16262;SDS011;8239;48.594;8.598;2023-01-31T00:11:10;9.93;;;4.97;;
16262;SDS011;8239;48.594;8.598;2023-01-31T00:13:37;10.93;;;4.90;;
16262;SDS011;8239;48.594;8.598;2023-01-31T00:16:07;12.93;;;5.57;;
16262;SDS011;8239;48.594;8.598;2023-01-31T00:18:34;10.27;;;5.20;;
16262;SDS011;8239;48.594;8.598;2023-01-31T00:21:03;12.00;;;4.87;;
16262;SDS011;8239;48.594;8.598;2023-01-31T00:23:32;9.70;;;4.83;;
16262;SDS011;8239;48.594;8.598;2023-01-31T00:26:05;10.20;;;5.00;;
16262;SDS011;8239;48.594;8.598;2023-01-31T00:28:33;11.97;;;5.23;;
16262;SDS011;8239;48.594;8.598;2023-01-31T00:31:00;11.10;;;5.40;;
16262;SDS011;8239;48.594;8.598;2023-01-31T00:33:29;9.47;;;5.40;;
16262;SDS011;8239;48.594;8.598;2023-01-31T00:35:56;9.63;;;5.27;;
16262;SDS011;8239;48.594;8.598;2023-01-31T00:38:23;12.53;;;5.50;;
16262;SDS011;8239;48.594;8.598;2023-01-31T00:40:50;9.43;;;5.70;;
16262;SDS011;8239;48.594;8.598;2023-01-31T00:43:18;13.40;;;5.50;;
16262;SDS011;8239;48.594;8.598;2023-01-31T00:45:45;10.13;;;5.53;;
16262;SDS011;8239;48.594;8.598;2023-01-31T00:48:12;11.37;;;6.00;;
16262;SDS011;8239;48.594;8.598;2023-01-31T00:50:40;12.23;;;5.90;;
16262;SDS011;8239;48.594;8.598;2023-01-31T00:53:07;9.23;;;5.27;;
16262;SDS011;8239;48.594;8.598;2023-01-31T00:55:34;10.07;;;5.53;;
16262;SDS011;8239;48.594;8.598;2023-01-31T00:58:01;12.03;;;5.93;;
16262;SDS011;8239;48.594;8.598;2023-01-31T01:00:29;12.43;;;5.83;;
16262;SDS011;8239;48.594;8.598;2023-01-31T01:02:56;13.37;;;5.70;;
16262;SDS011;8239;48.594;8.598;2023-01-31T01:05:23;10.10;;;5.47;;
16262;SDS011;8239;48.594;8.598;2023-01-31T01:07:51;12.63;;;5.57;;
16262;SDS011;8239;48.594;8.598;2023-01-31T01:10:18;11.17;;;5.97;;
16262;SDS011;8239;48.594;8.598;2023-01-31T01:12:45;12.13;;;5.47;;
16262;SDS011;8239;48.594;8.598;2023-01-31T01:15:12;10.43;;;5.43;;
16262;SDS011;8239;48.594;8.598;2023-01-31T01:17:39;9.87;;;5.17;;
16262;SDS011;8239;48.594;8.598;2023-01-31T01:20:06;12.47;;;5.23;;
16262;SDS011;8239;48.594;8.598;2023-01-31T01:22:35;12.83;;;5.00;;
16262;SDS011;8239;48.594;8.598;2023-01-31T01:25:04;9.03;;;5.07;;
16262;SDS011;8239;48.594;8.598;2023-01-31T01:27:32;10.23;;;4.57;;
16262;SDS011;8239;48.594;8.598;2023-01-31T01:29:59;11.07;;;5.37;;
16262;SDS011;8239;48.594;8.598;2023-01-31T01:32:26;10.40;;;5.13;;
16262;SDS011;8239;48.594;8.598;2023-01-31T01:34:53;14.00;;;4.80;;
16262;SDS011;8239;48.594;8.598;2023-01-31T01:37:20;13.37;;;5.07;;
16262;SDS011;8239;48.594;8.598;2023-01-31T01:39:47;10.90;;;5.43;;
16262;SDS011;8239;48.594;8.598;2023-01-31T01:42:16;11.03;;;5.33;;
16262;SDS011;8239;48.594;8.598;2023-01-31T01:44:47;10.73;;;5.37;;
16262;SDS011;8239;48.594;8.598;2023-01-31T01:47:20;14.83;;;5.97;;
16262;SDS011;8239;48.594;8.598;2023-01-31T01:49:58;11.20;;;5.33;;
16262;SDS011;8239;48.594;8.598;2023-01-31T01:52:29;10.67;;;5.83;;
16262;SDS011;8239;48.594;8.598;2023-01-31T01:55:02;8.97;;;5.40;;
16262;SDS011;8239;48.594;8.598;2023-01-31T01:57:37;12.63;;;5.87;;
16262;SDS011;8239;48.594;8.598;2023-01-31T02:00:08;13.73;;;5.43;;
16262;SDS011;8239;48.594;8.598;2023-01-31T02:02:39;12.33;;;5.57;;
16262;SDS011;8239;48.594;8.598;2023-01-31T02:05:07;11.33;;;5.53;;
16262;SDS011;8239;48.594;8.598;2023-01-31T02:07:37;11.03;;;5.03;;
16262;SDS011;8239;48.594;8.598;2023-01-31T02:10:05;14.10;;;5.50;;
16262;SDS011;8239;48.594;8.598;2023-01-31T02:12:38;10.37;;;5.23;;
16262;SDS011;8239;48.594;8.598;2023-01-31T02:15:06;12.40;;;5.03;;
16262;SDS011;8239;48.594;8.598;2023-01-31T02:17:34;14.97;;;5.87;;
16262;SDS011;8239;48.594;8.598;2023-01-31T02:20:05;11.77;;;5.17;;
16262;SDS011;8239;48.594;8.598;2023-01-31T02:22:53;10.77;;;5.27;;
16262;SDS011;8239;48.594;8.598;2023-01-31T02:25:46;13.70;;;5.43;;
16262;SDS011;8239;48.594;8.598;2023-01-31T02:31:58;9.13;;;5.23;;
16262;SDS011;8239;48.594;8.598;2023-01-31T02:34:44;12.97;;;5.60;;
16262;SDS011;8239;48.594;8.598;2023-01-31T02:37:19;11.40;;;5.20;;
16262;SDS011;8239;48.594;8.598;2023-01-31T02:39:55;12.13;;;5.50;;
16262;SDS011;8239;48.594;8.598;2023-01-31T02:42:37;14.47;;;6.23;;
16262;SDS011;8239;48.594;8.598;2023-01-31T02:45:15;12.20;;;6.27;;
16262;SDS011;8239;48.594;8.598;2023-01-31T02:47:52;13.13;;;6.10;;
16262;SDS011;8239;48.594;8.598;2023-01-31T02:50:28;10.60;;;5.73;;
16262;SDS011;8239;48.594;8.598;2023-01-31T02:52:59;13.33;;;5.53;;
16262;SDS011;8239;48.594;8.598;2023-01-31T02:55:34;15.27;;;5.80;;
16262;SDS011;8239;48.594;8.598;2023-01-31T02:58:21;12.40;;;5.93;;
16262;SDS011;8239;48.594;8.598;2023-01-31T03:00:50;11.13;;;5.60;;
16262;SDS011;8239;48.594;8.598;2023-01-31T03:03:25;12.07;;;6.10;;
16262;SDS011;8239;48.594;8.598;2023-01-31T03:06:06;14.00;;;5.77;;
16262;SDS011;8239;48.594;8.598;2023-01-31T03:08:36;13.13;;;6.00;;
16262;SDS011;8239;48.594;8.598;2023-01-31T03:11:04;14.90;;;5.70;;
16262;SDS011;8239;48.594;8.598;2023-01-31T03:13:36;10.53;;;4.57;;
16262;SDS011;8239;48.594;8.598;2023-01-31T03:16:15;8.20;;;5.10;;
16262;SDS011;8239;48.594;8.598;2023-01-31T03:19:07;12.40;;;5.27;;
16262;SDS011;8239;48.594;8.598;2023-01-31T03:21:39;12.20;;;4.87;;
16262;SDS011;8239;48.594;8.598;2023-01-31T03:24:11;13.03;;;5.77;;
16262;SDS011;8239;48.594;8.598;2023-01-31T03:26:40;12.87;;;5.47;;
16262;SDS011;8239;48.594;8.598;2023-01-31T03:29:08;13.33;;;6.17;;
16262;SDS011;8239;48.594;8.598;2023-01-31T03:31:40;10.20;;;5.67;;
16262;SDS011;8239;48.594;8.598;2023-01-31T03:34:14;14.87;;;6.60;;
16262;SDS011;8239;48.594;8.598;2023-01-31T03:36:45;14.03;;;6.00;;
16262;SDS011;8239;48.594;8.598;2023-01-31T03:39:18;11.63;;;6.17;;
16262;SDS011;8239;48.594;8.598;2023-01-31T03:41:55;16.67;;;6.67;;
16262;SDS011;8239;48.594;8.598;2023-01-31T03:44:33;13.73;;;6.20;;
16262;SDS011;8239;48.594;8.598;2023-01-31T03:47:05;13.43;;;6.37;;
16262;SDS011;8239;48.594;8.598;2023-01-31T03:49:39;15.90;;;5.53;;
16262;SDS011;8239;48.594;8.598;2023-01-31T03:52:08;10.47;;;6.23;;
16262;SDS011;8239;48.594;8.598;2023-01-31T03:54:39;14.43;;;6.13;;
16262;SDS011;8239;48.594;8.598;2023-01-31T03:57:14;15.23;;;6.10;;
16262;SDS011;8239;48.594;8.598;2023-01-31T03:59:46;14.40;;;6.47;;
16262;SDS011;8239;48.594;8.598;2023-01-31T04:02:18;10.03;;;4.90;;
16262;SDS011;8239;48.594;8.598;2023-01-31T04:04:49;16.10;;;5.87;;
16262;SDS011;8239;48.594;8.598;2023-01-31T04:07:20;17.13;;;6.37;;
16262;SDS011;8239;48.594;8.598;2023-01-31T04:09:48;13.20;;;6.30;;
16262;SDS011;8239;48.594;8.598;2023-01-31T04:12:15;13.50;;;6.30;;
16262;SDS011;8239;48.594;8.598;2023-01-31T04:14:42;12.20;;;5.77;;
16262;SDS011;8239;48.594;8.598;2023-01-31T04:17:09;13.67;;;5.83;;
16262;SDS011;8239;48.594;8.598;2023-01-31T04:19:36;14.83;;;5.97;;
16262;SDS011;8239;48.594;8.598;2023-01-31T04:22:04;13.77;;;6.00;;
16262;SDS011;8239;48.594;8.598;2023-01-31T04:24:31;15.17;;;6.20;;
16262;SDS011;8239;48.594;8.598;2023-01-31T04:26:59;14.53;;;6.60;;
16262;SDS011;8239;48.594;8.598;2023-01-31T04:29:26;19.60;;;6.30;;
16262;SDS011;8239;48.594;8.598;2023-01-31T04:31:53;16.10;;;6.50;;
16262;SDS011;8239;48.594;8.598;2023-01-31T04:34:20;15.13;;;5.70;;
16262;SDS011;8239;48.594;8.598;2023-01-31T04:36:47;17.93;;;5.93;;
16262;SDS011;8239;48.594;8.598;2023-01-31T04:39:15;18.30;;;5.90;;
16262;SDS011;8239;48.594;8.598;2023-01-31T04:41:42;16.63;;;5.50;;
16262;SDS011;8239;48.594;8.598;2023-01-31T04:44:09;14.93;;;5.50;;
16262;SDS011;8239;48.594;8.598;2023-01-31T04:46:36;11.07;;;5.10;;
16262;SDS011;8239;48.594;8.598;2023-01-31T04:49:03;13.20;;;5.00;;
16262;SDS011;8239;48.594;8.598;2023-01-31T04:51:30;16.47;;;5.87;;
16262;SDS011;8239;48.594;8.598;2023-01-31T04:53:57;12.67;;;5.00;;
16262;SDS011;8239;48.594;8.598;2023-01-31T04:56:26;8.73;;;4.40;;
16262;SDS011;8239;48.594;8.598;2023-01-31T04:58:53;12.83;;;5.53;;
16262;SDS011;8239;48.594;8.598;2023-01-31T05:01:20;12.93;;;5.30;;
16262;SDS011;8239;48.594;8.598;2023-01-31T05:03:47;13.70;;;5.40;;
16262;SDS011;8239;48.594;8.598;2023-01-31T05:06:14;12.83;;;5.03;;
16262;SDS011;8239;48.594;8.598;2023-01-31T05:08:41;8.20;;;4.37;;
16262;SDS011;8239;48.594;8.598;2023-01-31T05:11:08;9.57;;;4.63;;
16262;SDS011;8239;48.594;8.598;2023-01-31T05:13:36;9.80;;;4.23;;
16262;SDS011;8239;48.594;8.598;2023-01-31T05:16:05;11.30;;;4.40;;
16262;SDS011;8239;48.594;8.598;2023-01-31T05:18:32;9.97;;;4.27;;
16262;SDS011;8239;48.594;8.598;2023-01-31T05:21:00;11.85;;;5.13;;
16262;SDS011;8239;48.594;8.598;2023-01-31T05:23:27;12.83;;;4.73;;
16262;SDS011;8239;48.594;8.598;2023-01-31T05:25:54;9.30;;;4.27;;
16262;SDS011;8239;48.594;8.598;2023-01-31T05:28:22;9.80;;;4.40;;
16262;SDS011;8239;48.594;8.598;2023-01-31T05:30:51;11.70;;;4.10;;
16262;SDS011;8239;48.594;8.598;2023-01-31T05:33:18;10.83;;;4.40;;
16262;SDS011;8239;48.594;8.598;2023-01-31T05:35:46;8.97;;;4.17;;
16262;SDS011;8239;48.594;8.598;2023-01-31T05:38:13;9.33;;;3.80;;
16262;SDS011;8239;48.594;8.598;2023-01-31T05:40:40;13.03;;;4.23;;
16262;SDS011;8239;48.594;8.598;2023-01-31T05:43:07;13.37;;;4.77;;
16262;SDS011;8239;48.594;8.598;2023-01-31T05:45:35;9.23;;;4.23;;
16262;SDS011;8239;48.594;8.598;2023-01-31T05:48:04;12.47;;;4.83;;
16262;SDS011;8239;48.594;8.598;2023-01-31T05:50:31;9.90;;;4.17;;
16262;SDS011;8239;48.594;8.598;2023-01-31T05:52:58;10.63;;;4.90;;
16262;SDS011;8239;48.594;8.598;2023-01-31T05:55:27;13.60;;;4.87;;
16262;SDS011;8239;48.594;8.598;2023-01-31T05:57:55;9.83;;;3.97;;
16262;SDS011;8239;48.594;8.598;2023-01-31T06:00:25;13.73;;;4.40;;
16262;SDS011;8239;48.594;8.598;2023-01-31T06:02:55;12.07;;;4.20;;
16262;SDS011;8239;48.594;8.598;2023-01-31T06:05:24;12.87;;;4.33;;
16262;SDS011;8239;48.594;8.598;2023-01-31T06:07:51;12.07;;;4.27;;
16262;SDS011;8239;48.594;8.598;2023-01-31T06:10:19;10.13;;;4.87;;
16262;SDS011;8239;48.594;8.598;2023-01-31T06:12:46;13.57;;;4.30;;
16262;SDS011;8239;48.594;8.598;2023-01-31T06:15:13;10.17;;;4.00;;
16262;SDS011;8239;48.594;8.598;2023-01-31T06:17:40;12.10;;;4.93;;
16262;SDS011;8239;48.594;8.598;2023-01-31T06:20:08;14.40;;;4.43;;
16262;SDS011;8239;48.594;8.598;2023-01-31T06:22:37;19.20;;;6.23;;
16262;SDS011;8239;48.594;8.598;2023-01-31T06:25:04;10.23;;;5.43;;
16262;SDS011;8239;48.594;8.598;2023-01-31T06:27:32;15.80;;;6.27;;
16262;SDS011;8239;48.594;8.598;2023-01-31T06:29:59;28.30;;;9.17;;
16262;SDS011;8239;48.594;8.598;2023-01-31T06:32:26;18.20;;;5.83;;
16262;SDS011;8239;48.594;8.598;2023-01-31T06:34:53;17.43;;;5.33;;
16262;SDS011;8239;48.594;8.598;2023-01-31T06:37:20;11.00;;;4.37;;
16262;SDS011;8239;48.594;8.598;2023-01-31T06:39:49;16.87;;;8.00;;
16262;SDS011;8239;48.594;8.598;2023-01-31T06:42:16;41.27;;;18.83;;
16262;SDS011;8239;48.594;8.598;2023-01-31T06:44:43;13.73;;;5.00;;
16262;SDS011;8239;48.594;8.598;2023-01-31T06:47:10;11.73;;;4.20;;
16262;SDS011;8239;48.594;8.598;2023-01-31T06:49:38;25.80;;;10.03;;
16262;SDS011;8239;48.594;8.598;2023-01-31T06:52:05;17.13;;;6.20;;
16262;SDS011;8239;48.594;8.598;2023-01-31T06:54:32;15.40;;;5.23;;
16262;SDS011;8239;48.594;8.598;2023-01-31T06:57:01;12.70;;;4.50;;
16262;SDS011;8239;48.594;8.598;2023-01-31T06:59:28;12.53;;;4.00;;
16262;SDS011;8239;48.594;8.598;2023-01-31T07:01:55;11.47;;;3.83;;
16262;SDS011;8239;48.594;8.598;2023-01-31T07:04:22;12.33;;;4.50;;
16262;SDS011;8239;48.594;8.598;2023-01-31T07:06:49;13.37;;;5.27;;
16262;SDS011;8239;48.594;8.598;2023-01-31T07:09:16;30.23;;;13.90;;
16262;SDS011;8239;48.594;8.598;2023-01-31T07:11:43;12.17;;;3.77;;
16262;SDS011;8239;48.594;8.598;2023-01-31T07:14:11;11.77;;;4.80;;
16262;SDS011;8239;48.594;8.598;2023-01-31T07:16:38;16.03;;;6.63;;
16262;SDS011;8239;48.594;8.598;2023-01-31T07:19:05;9.23;;;5.00;;
16262;SDS011;8239;48.594;8.598;2023-01-31T07:21:32;10.03;;;4.87;;
16262;SDS011;8239;48.594;8.598;2023-01-31T07:24:00;16.23;;;4.50;;
16262;SDS011;8239;48.594;8.598;2023-01-31T07:26:28;10.70;;;4.40;;
16262;SDS011;8239;48.594;8.598;2023-01-31T07:28:55;7.17;;;3.90;;
16262;SDS011;8239;48.594;8.598;2023-01-31T07:31:23;10.57;;;4.07;;
16262;SDS011;8239;48.594;8.598;2023-01-31T07:33:50;11.57;;;3.73;;
16262;SDS011;8239;48.594;8.598;2023-01-31T07:36:17;11.03;;;3.87;;
16262;SDS011;8239;48.594;8.598;2023-01-31T07:38:51;7.70;;;3.93;;
16262;SDS011;8239;48.594;8.598;2023-01-31T07:41:19;11.80;;;3.70;;
16262;SDS011;8239;48.594;8.598;2023-01-31T07:43:46;9.00;;;3.60;;
16262;SDS011;8239;48.594;8.598;2023-01-31T07:46:13;8.07;;;3.33;;
16262;SDS011;8239;48.594;8.598;2023-01-31T07:48:41;9.13;;;3.27;;
16262;SDS011;8239;48.594;8.598;2023-01-31T07:51:08;6.83;;;3.07;;
16262;SDS011;8239;48.594;8.598;2023-01-31T07:53:36;8.70;;;3.17;;
16262;SDS011;8239;48.594;8.598;2023-01-31T07:56:07;8.50;;;3.37;;
16262;SDS011;8239;48.594;8.598;2023-01-31T07:58:35;8.60;;;2.83;;
16262;SDS011;8239;48.594;8.598;2023-01-31T08:01:03;6.50;;;2.90;;
16262;SDS011;8239;48.594;8.598;2023-01-31T08:03:53;6.23;;;2.67;;
16262;SDS011;8239;48.594;8.598;2023-01-31T08:06:29;8.47;;;2.80;;
16262;SDS011;8239;48.594;8.598;2023-01-31T08:08:57;7.00;;;2.87;;
16262;SDS011;8239;48.594;8.598;2023-01-31T08:11:25;6.17;;;3.37;;
16262;SDS011;8239;48.594;8.598;2023-01-31T08:13:52;8.13;;;3.23;;
16262;SDS011;8239;48.594;8.598;2023-01-31T08:16:20;6.53;;;3.20;;
16262;SDS011;8239;48.594;8.598;2023-01-31T08:18:47;6.93;;;2.43;;
16262;SDS011;8239;48.594;8.598;2023-01-31T08:21:16;6.83;;;3.57;;
16262;SDS011;8239;48.594;8.598;2023-01-31T08:23:43;6.90;;;3.20;;
16262;SDS011;8239;48.594;8.598;2023-01-31T08:26:12;6.60;;;3.70;;
16262;SDS011;8239;48.594;8.598;2023-01-31T08:28:40;7.13;;;3.40;;
16262;SDS011;8239;48.594;8.598;2023-01-31T08:31:10;8.90;;;3.50;;
16262;SDS011;8239;48.594;8.598;2023-01-31T08:33:38;5.93;;;2.93;;
16262;SDS011;8239;48.594;8.598;2023-01-31T08:36:09;8.43;;;3.60;;
16262;SDS011;8239;48.594;8.598;2023-01-31T08:38:39;5.57;;;2.73;;
16262;SDS011;8239;48.594;8.598;2023-01-31T08:41:06;5.67;;;2.90;;
16262;SDS011;8239;48.594;8.598;2023-01-31T08:43:33;7.60;;;2.80;;
16262;SDS011;8239;48.594;8.598;2023-01-31T08:46:02;5.23;;;2.70;;
16262;SDS011;8239;48.594;8.598;2023-01-31T08:48:30;8.30;;;2.27;;
16262;SDS011;8239;48.594;8.598;2023-01-31T08:50:59;7.87;;;3.00;;
16262;SDS011;8239;48.594;8.598;2023-01-31T08:53:27;5.33;;;3.00;;
16262;SDS011;8239;48.594;8.598;2023-01-31T08:55:58;5.80;;;2.90;;
16262;SDS011;8239;48.594;8.598;2023-01-31T08:58:25;5.33;;;2.80;;
16262;SDS011;8239;48.594;8.598;2023-01-31T09:00:53;5.83;;;2.80;;
16262;SDS011;8239;48.594;8.598;2023-01-31T09:03:25;5.20;;;2.50;;
16262;SDS011;8239;48.594;8.598;2023-01-31T09:05:52;5.07;;;2.70;;
16262;SDS011;8239;48.594;8.598;2023-01-31T09:08:19;7.87;;;3.00;;
16262;SDS011;8239;48.594;8.598;2023-01-31T09:10:49;5.60;;;2.70;;
16262;SDS011;8239;48.594;8.598;2023-01-31T09:13:18;6.80;;;3.00;;
16262;SDS011;8239;48.594;8.598;2023-01-31T09:15:45;5.23;;;2.87;;
16262;SDS011;8239;48.594;8.598;2023-01-31T09:18:12;6.37;;;2.60;;
16262;SDS011;8239;48.594;8.598;2023-01-31T09:20:39;6.87;;;2.70;;
16262;SDS011;8239;48.594;8.598;2023-01-31T09:23:06;4.83;;;2.33;;
16262;SDS011;8239;48.594;8.598;2023-01-31T09:25:33;9.03;;;2.63;;
16262;SDS011;8239;48.594;8.598;2023-01-31T09:28:00;7.53;;;2.90;;
16262;SDS011;8239;48.594;8.598;2023-01-31T09:30:28;6.80;;;2.70;;
16262;SDS011;8239;48.594;8.598;2023-01-31T09:32:55;4.83;;;2.50;;
16262;SDS011;8239;48.594;8.598;2023-01-31T09:35:25;6.27;;;2.97;;
16262;SDS011;8239;48.594;8.598;2023-01-31T09:37:52;4.17;;;2.30;;
16262;SDS011;8239;48.594;8.598;2023-01-31T09:40:20;6.60;;;2.40;;
16262;SDS011;8239;48.594;8.598;2023-01-31T09:42:48;4.07;;;2.03;;
16262;SDS011;8239;48.594;8.598;2023-01-31T09:45:20;3.57;;;1.80;;
16262;SDS011;8239;48.594;8.598;2023-01-31T09:47:54;3.47;;;1.50;;
16262;SDS011;8239;48.594;8.598;2023-01-31T09:50:26;4.00;;;2.00;;
16262;SDS011;8239;48.594;8.598;2023-01-31T09:52:58;3.80;;;2.30;;
16262;SDS011;8239;48.594;8.598;2023-01-31T09:55:26;4.63;;;1.90;;
16262;SDS011;8239;48.594;8.598;2023-01-31T09:58:03;2.50;;;1.90;;
16262;SDS011;8239;48.594;8.598;2023-01-31T10:00:42;6.97;;;2.23;;
16262;SDS011;8239;48.594;8.598;2023-01-31T10:06:06;9.93;;;1.90;;
16262;SDS011;8239;48.594;8.598;2023-01-31T10:08:42;5.80;;;2.17;;
16262;SDS011;8239;48.594;8.598;2023-01-31T10:11:15;6.13;;;2.10;;
16262;SDS011;8239;48.594;8.598;2023-01-31T10:13:47;7.80;;;2.33;;
16262;SDS011;8239;48.594;8.598;2023-01-31T10:16:20;4.17;;;2.27;;
16262;SDS011;8239;48.594;8.598;2023-01-31T10:18:54;3.53;;;1.57;;
16262;SDS011;8239;48.594;8.598;2023-01-31T10:21:27;3.20;;;2.10;;
16262;SDS011;8239;48.594;8.598;2023-01-31T10:23:59;5.37;;;1.90;;
16262;SDS011;8239;48.594;8.598;2023-01-31T10:26:33;4.77;;;2.30;;
16262;SDS011;8239;48.594;8.598;2023-01-31T10:29:03;4.30;;;1.80;;
16262;SDS011;8239;48.594;8.598;2023-01-31T10:31:39;4.33;;;1.67;;
16262;SDS011;8239;48.594;8.598;2023-01-31T10:34:11;5.10;;;1.47;;
16262;SDS011;8239;48.594;8.598;2023-01-31T10:36:43;6.20;;;3.23;;
16262;SDS011;8239;48.594;8.598;2023-01-31T10:39:15;3.57;;;1.80;;
16262;SDS011;8239;48.594;8.598;2023-01-31T10:41:54;4.73;;;1.90;;
16262;SDS011;8239;48.594;8.598;2023-01-31T10:44:35;3.03;;;1.60;;
16262;SDS011;8239;48.594;8.598;2023-01-31T10:47:12;4.07;;;2.30;;
16262;SDS011;8239;48.594;8.598;2023-01-31T10:49:43;4.67;;;2.00;;
16262;SDS011;8239;48.594;8.598;2023-01-31T10:52:31;5.13;;;1.80;;
16262;SDS011;8239;48.594;8.598;2023-01-31T10:58:03;4.83;;;1.87;;
16262;SDS011;8239;48.594;8.598;2023-01-31T11:00:33;4.30;;;1.83;;
16262;SDS011;8239;48.594;8.598;2023-01-31T11:03:00;4.03;;;2.10;;
16262;SDS011;8239;48.594;8.598;2023-01-31T11:05:29;4.77;;;1.93;;
16262;SDS011;8239;48.594;8.598;2023-01-31T11:07:56;3.93;;;2.10;;
16262;SDS011;8239;48.594;8.598;2023-01-31T11:10:26;3.50;;;2.03;;
16262;SDS011;8239;48.594;8.598;2023-01-31T11:12:55;4.00;;;2.30;;
16262;SDS011;8239;48.594;8.598;2023-01-31T11:15:26;5.27;;;1.93;;
16262;SDS011;8239;48.594;8.598;2023-01-31T11:17:56;4.23;;;1.97;;
16262;SDS011;8239;48.594;8.598;2023-01-31T11:20:26;3.70;;;2.00;;
16262;SDS011;8239;48.594;8.598;2023-01-31T11:22:57;3.70;;;2.03;;
16262;SDS011;8239;48.594;8.598;2023-01-31T11:25:27;4.13;;;2.00;;
16262;SDS011;8239;48.594;8.598;2023-01-31T11:27:56;4.70;;;2.00;;
16262;SDS011;8239;48.594;8.598;2023-01-31T11:30:26;3.73;;;2.10;;
16262;SDS011;8239;48.594;8.598;2023-01-31T11:32:56;5.40;;;2.13;;
16262;SDS011;8239;48.594;8.598;2023-01-31T11:35:25;4.70;;;1.83;;
16262;SDS011;8239;48.594;8.598;2023-01-31T11:37:55;3.53;;;1.80;;
16262;SDS011;8239;48.594;8.598;2023-01-31T11:40:27;5.77;;;1.73;;
16262;SDS011;8239;48.594;8.598;2023-01-31T11:42:57;5.37;;;1.90;;
16262;SDS011;8239;48.594;8.598;2023-01-31T11:45:27;5.70;;;2.33;;
16262;SDS011;8239;48.594;8.598;2023-01-31T11:47:58;4.03;;;1.90;;
16262;SDS011;8239;48.594;8.598;2023-01-31T11:50:32;4.90;;;1.90;;
16262;SDS011;8239;48.594;8.598;2023-01-31T11:53:14;4.93;;;1.90;;
16262;SDS011;8239;48.594;8.598;2023-01-31T11:55:44;3.53;;;2.27;;
16262;SDS011;8239;48.594;8.598;2023-01-31T11:58:15;5.53;;;2.10;;
16262;SDS011;8239;48.594;8.598;2023-01-31T12:00:50;4.20;;;1.83;;
16262;SDS011;8239;48.594;8.598;2023-01-31T12:03:20;3.43;;;2.20;;
16262;SDS011;8239;48.594;8.598;2023-01-31T12:05:58;4.23;;;2.37;;
16262;SDS011;8239;48.594;8.598;2023-01-31T12:08:30;7.83;;;2.43;;
16262;SDS011;8239;48.594;8.598;2023-01-31T12:11:02;3.27;;;2.00;;
16262;SDS011;8239;48.594;8.598;2023-01-31T12:13:31;4.63;;;1.83;;
16262;SDS011;8239;48.594;8.598;2023-01-31T12:16:11;7.17;;;3.13;;
16262;SDS011;8239;48.594;8.598;2023-01-31T12:18:50;4.70;;;2.73;;
16262;SDS011;8239;48.594;8.598;2023-01-31T12:21:33;3.60;;;1.70;;
16262;SDS011;8239;48.594;8.598;2023-01-31T12:24:13;8.17;;;3.07;;
16262;SDS011;8239;48.594;8.598;2023-01-31T12:26:50;5.23;;;2.60;;
16262;SDS011;8239;48.594;8.598;2023-01-31T12:29:32;8.40;;;3.10;;
16262;SDS011;8239;48.594;8.598;2023-01-31T12:32:20;7.77;;;2.47;;
16262;SDS011;8239;48.594;8.598;2023-01-31T12:35:00;4.87;;;2.43;;
16262;SDS011;8239;48.594;8.598;2023-01-31T12:37:53;5.30;;;2.37;;
16262;SDS011;8239;48.594;8.598;2023-01-31T12:40:36;5.10;;;2.70;;
16262;SDS011;8239;48.594;8.598;2023-01-31T12:43:11;5.57;;;2.60;;
16262;SDS011;8239;48.594;8.598;2023-01-31T12:45:56;4.43;;;2.30;;
16262;SDS011;8239;48.594;8.598;2023-01-31T12:48:40;4.37;;;2.60;;
16262;SDS011;8239;48.594;8.598;2023-01-31T12:51:29;5.80;;;2.60;;
16262;SDS011;8239;48.594;8.598;2023-01-31T12:54:14;5.13;;;2.50;;
16262;SDS011;8239;48.594;8.598;2023-01-31T12:57:00;3.37;;;1.97;;
16262;SDS011;8239;48.594;8.598;2023-01-31T12:59:38;4.47;;;2.30;;
16262;SDS011;8239;48.594;8.598;2023-01-31T13:02:17;4.67;;;2.50;;
16262;SDS011;8239;48.594;8.598;2023-01-31T13:05:07;5.37;;;2.63;;
16262;SDS011;8239;48.594;8.598;2023-01-31T13:07:44;7.93;;;3.00;;
16262;SDS011;8239;48.594;8.598;2023-01-31T13:10:19;6.13;;;2.50;;
16262;SDS011;8239;48.594;8.598;2023-01-31T13:12:57;5.87;;;2.60;;
16262;SDS011;8239;48.594;8.598;2023-01-31T13:15:26;6.33;;;3.03;;
16262;SDS011;8239;48.594;8.598;2023-01-31T13:18:00;9.13;;;5.83;;
16262;SDS011;8239;48.594;8.598;2023-01-31T13:20:30;5.50;;;2.27;;
16262;SDS011;8239;48.594;8.598;2023-01-31T13:23:03;6.83;;;3.33;;
16262;SDS011;8239;48.594;8.598;2023-01-31T13:25:37;6.67;;;3.03;;
16262;SDS011;8239;48.594;8.598;2023-01-31T13:28:11;3.47;;;2.20;;
16262;SDS011;8239;48.594;8.598;2023-01-31T13:30:43;3.30;;;2.33;;
16262;SDS011;8239;48.594;8.598;2023-01-31T13:33:17;27.37;;;12.27;;
16262;SDS011;8239;48.594;8.598;2023-01-31T13:35:55;10.97;;;4.70;;
16262;SDS011;8239;48.594;8.598;2023-01-31T13:38:29;3.17;;;2.13;;
16262;SDS011;8239;48.594;8.598;2023-01-31T13:41:02;10.30;;;4.90;;
16262;SDS011;8239;48.594;8.598;2023-01-31T13:43:32;2.77;;;1.80;;
16262;SDS011;8239;48.594;8.598;2023-01-31T13:46:00;2.73;;;1.80;;
16262;SDS011;8239;48.594;8.598;2023-01-31T13:48:31;3.50;;;2.10;;
16262;SDS011;8239;48.594;8.598;2023-01-31T13:51:03;3.53;;;2.30;;
16262;SDS011;8239;48.594;8.598;2023-01-31T13:53:41;4.37;;;2.23;;
16262;SDS011;8239;48.594;8.598;2023-01-31T13:56:16;4.17;;;2.07;;
16262;SDS011;8239;48.594;8.598;2023-01-31T13:58:49;1.57;;;1.47;;
16262;SDS011;8239;48.594;8.598;2023-01-31T14:01:21;2.77;;;2.20;;
16262;SDS011;8239;48.594;8.598;2023-01-31T14:06:56;4.03;;;2.40;;
16262;SDS011;8239;48.594;8.598;2023-01-31T14:09:40;2.37;;;1.90;;
16262;SDS011;8239;48.594;8.598;2023-01-31T14:12:28;8.47;;;5.37;;
16262;SDS011;8239;48.594;8.598;2023-01-31T14:15:00;3.97;;;2.27;;
16262;SDS011;8239;48.594;8.598;2023-01-31T14:20:25;3.17;;;2.43;;
16262;SDS011;8239;48.594;8.598;2023-01-31T14:25:56;3.63;;;2.33;;
16262;SDS011;8239;48.594;8.598;2023-01-31T14:28:23;15.23;;;7.40;;
16262;SDS011;8239;48.594;8.598;2023-01-31T14:30:52;2.47;;;1.60;;
16262;SDS011;8239;48.594;8.598;2023-01-31T14:33:24;4.60;;;1.97;;
16262;SDS011;8239;48.594;8.598;2023-01-31T14:41:55;4.03;;;2.33;;
16262;SDS011;8239;48.594;8.598;2023-01-31T14:44:45;3.83;;;2.20;;
16262;SDS011;8239;48.594;8.598;2023-01-31T14:47:31;3.97;;;2.50;;
16262;SDS011;8239;48.594;8.598;2023-01-31T14:53:18;2.50;;;2.00;;
16262;SDS011;8239;48.594;8.598;2023-01-31T14:55:58;1.83;;;1.47;;
16262;SDS011;8239;48.594;8.598;2023-01-31T14:58:36;4.93;;;1.80;;
16262;SDS011;8239;48.594;8.598;2023-01-31T15:01:08;3.93;;;2.20;;
16262;SDS011;8239;48.594;8.598;2023-01-31T15:03:37;4.07;;;1.93;;
16262;SDS011;8239;48.594;8.598;2023-01-31T15:06:14;4.37;;;2.20;;
16262;SDS011;8239;48.594;8.598;2023-01-31T15:08:48;4.60;;;2.70;;
16262;SDS011;8239;48.594;8.598;2023-01-31T15:14:17;4.03;;;1.80;;
16262;SDS011;8239;48.594;8.598;2023-01-31T15:16:56;4.00;;;1.97;;
16262;SDS011;8239;48.594;8.598;2023-01-31T15:19:27;3.80;;;2.27;;
16262;SDS011;8239;48.594;8.598;2023-01-31T15:22:01;5.80;;;2.80;;
16262;SDS011;8239;48.594;8.598;2023-01-31T15:24:32;3.73;;;2.10;;
16262;SDS011;8239;48.594;8.598;2023-01-31T15:27:02;2.90;;;2.30;;
16262;SDS011;8239;48.594;8.598;2023-01-31T15:29:35;3.47;;;2.30;;
16262;SDS011;8239;48.594;8.598;2023-01-31T15:32:16;3.80;;;2.37;;
16262;SDS011;8239;48.594;8.598;2023-01-31T15:34:47;6.30;;;3.00;;
16262;SDS011;8239;48.594;8.598;2023-01-31T15:37:21;3.40;;;2.50;;
16262;SDS011;8239;48.594;8.598;2023-01-31T15:39:53;4.17;;;2.60;;
16262;SDS011;8239;48.594;8.598;2023-01-31T15:42:23;4.33;;;2.90;;
16262;SDS011;8239;48.594;8.598;2023-01-31T15:45:12;7.30;;;3.07;;
16262;SDS011;8239;48.594;8.598;2023-01-31T15:47:53;5.13;;;3.20;;
16262;SDS011;8239;48.594;8.598;2023-01-31T15:50:22;4.30;;;2.77;;